Accueil
METAR-TAF:

METAR-TAF

Aéroports :

Angoulême, France

Aéroport international Angoulême-Cognac

latitude: 45-43-46N, longitude: 00-13-08E, altitude: 132 m

METAR: absent

Heure: 06:11 (05:11 UTC)

Prévision

Le bulletin a été fait il y a 12 heures et 11 minutes, à 17:00 UTC
Prévision valable du 17 à 18 UTC au 18 à 18 UTC
Vent 5 kt de nord-ouest
Visibilité 10 km ou plus
Nuages fragmentés à une hauteur de 2000 ft
Temporairement
du 17 à 22 UTC au 18 à 02 UTC
Brouillard mince
Probabilité 40%
du 18 à 02 UTC au 18 à 09 UTC
Visibilité: 0500 m
brouillard

TAF: LFBU 171700Z 1718/1818 32005KT 9999 BKN020 TEMPO 1722/1802 MIFG PROB40 1802/1809 0500 FG

Observations et prévisions météorologiques de plus de 4000 aéroports (messages METAR et TAF).

Les stations disponibles sont représentées par des disques jaunes et rouges sur la carte.

Passer la souris dessus pour voir le nom de la station.

Cliquer dessus pour voir les observations et prévisions météorologiques.

Pour changer de carte: cliquez sur les boutons verts avec une croix noire pour zoomer, sur le bouton vert avec un tiret pour effectuer un zoom arrière, ou sur les flèches vertes pour les cartes adjacentes.


METAR-TAF: